Time;durP1;ratioP1;P1;durP2;ratioP2;P2;SDS_P1;SDS_P2;PMS_P1;PMS_P2;Temp;Humidity;BMP_temperature;BMP_pressure;BME280_temperature;BME280_humidity;BME280_pressure;Samples;Min_cycle;Max_cycle;Signal;HPM_P1;HPM_P2
2022/06/08 00:01:31;;;;;;;;;;;;;;;-149.78;100.00;50270.00;5073789;28;20372;-64
2022/06/08 00:03:58;;;;;;;;;;;;;;;-149.78;100.00;50232.84;5088731;28;19920;-64
2022/06/08 00:06:24;;;;;;;;;;;;;;;-149.78;100.00;50271.97;5091857;28;19921;-64
2022/06/08 00:08:49;;;;;;;;;;;;;;;-149.78;100.00;50246.53;5077019;28;19916;-64
2022/06/08 00:11:15;;;;;;;;;;;;;;;-149.78;100.00;50232.84;5074435;28;19924;-64
2022/06/08 00:13:42;;;;;;;;;;;;;;;-149.78;100.00;50260.22;5084019;28;19935;-64
2022/06/08 00:16:08;;;;;;;;;;;;;;;-149.78;100.00;50232.84;5089867;28;19924;-64
2022/06/08 00:18:33;;;;;;;;;;;;;;;-149.78;100.00;50248.50;5088726;28;19955;-64
2022/06/08 00:20:59;;;;;;;;;;;;;;;-149.78;100.00;50250.44;5089824;28;19924;-64
2022/06/08 00:23:24;;;;;;;;;;;;;;;-149.78;100.00;50242.63;5090912;28;20031;-64
2022/06/08 00:25:50;;;;;;;;;;;;;;;-149.78;100.00;50248.50;5084228;28;19920;-63
2022/06/08 00:28:16;;;;;;;;;;;;;;;-149.78;100.00;50232.84;5083745;28;20322;-63
2022/06/08 00:30:42;;;;;;;;;;;;;;;-149.78;100.00;50256.31;5085559;28;19958;-64
2022/06/08 00:33:07;;;;;;;;;;;;;;;-149.78;100.00;50256.31;5090545;28;19955;-64
2022/06/08 00:35:33;;;;;;;;;;;;;;;-149.78;100.00;50248.50;5084304;28;20002;-64
2022/06/08 00:37:59;;;;;;;;;;;;;;;-149.78;100.00;50240.66;5079744;28;19923;-64
2022/06/08 00:40:30;;;;;;;;;;;;;;;-149.78;100.00;50230.88;5084138;28;20010;-64
2022/06/08 00:42:56;;;;;;;;;;;;;;;-149.78;100.00;50240.66;5086282;28;19920;-64
2022/06/08 00:45:22;;;;;;;;;;;;;;;-149.78;100.00;50260.22;5084104;28;19974;-64
2022/06/08 00:47:51;;;;;;;;;;;;;;;-149.78;100.00;50266.09;5085517;28;19938;-64
2022/06/08 00:50:29;;;;;;;;;;;;;;;-149.78;100.00;50260.22;5074616;28;19959;-63
2022/06/08 00:52:56;;;;;;;;;;;;;;;-149.78;100.00;50268.03;5088755;28;19920;-64
2022/06/08 00:55:23;;;;;;;;;;;;;;;-149.78;100.00;50268.03;5075719;28;19967;-64
2022/06/08 00:57:50;;;;;;;;;;;;;;;-149.78;100.00;50248.50;5093266;28;19916;-64
2022/06/08 01:00:21;;;;;;;;;;;;;;;-149.78;100.00;50256.31;5078814;28;19916;-64
2022/06/08 01:02:46;;;;;;;;;;;;;;;-149.78;100.00;50244.59;5078768;28;20017;-64
2022/06/08 01:05:15;;;;;;;;;;;;;;;-149.78;100.00;50234.81;5081098;28;20015;-65
2022/06/08 01:07:42;;;;;;;;;;;;;;;-149.78;100.00;50244.59;5068827;28;19926;-65
2022/06/08 01:10:16;;;;;;;;;;;;;;;-149.78;100.00;50250.44;5074188;28;19931;-65
2022/06/08 01:12:42;;;;;;;;;;;;;;;-149.78;100.00;50234.81;5081506;28;20383;-65
2022/06/08 01:15:10;;;;;;;;;;;;;;;-149.78;100.00;50252.41;5085575;28;19916;-65
2022/06/08 01:17:35;;;;;;;;;;;;;;;-149.78;100.00;50271.97;5074430;28;19916;-65
2022/06/08 01:20:01;;;;;;;;;;;;;;;-149.78;100.00;50268.03;5087160;28;19943;-65
2022/06/08 01:22:26;;;;;;;;;;;;;;;-149.78;100.00;50279.78;5091926;28;20263;-64
2022/06/08 01:24:52;;;;;;;;;;;;;;;-149.78;100.00;50244.59;5088808;28;19945;-64
2022/06/08 01:27:26;;;;;;;;;;;;;;;-149.78;100.00;50234.81;5082322;28;19959;-64
2022/06/08 01:30:10;;;;;;;;;;;;;;;-149.78;100.00;50256.31;5074485;28;19916;-63
2022/06/08 01:32:41;;;;;;;;;;;;;;;-149.78;100.00;50228.94;5078055;28;19920;-64
2022/06/08 01:35:26;;;;;;;;;;;;;;;-149.78;100.00;50275.88;5085753;28;19916;-64
2022/06/08 01:37:54;;;;;;;;;;;;;;;-149.78;100.00;50283.69;5079708;28;19916;-64
2022/06/08 01:40:23;;;;;;;;;;;;;;;-149.78;100.00;50266.09;5085813;28;19916;-64
2022/06/08 01:42:54;;;;;;;;;;;;;;;-149.78;100.00;50264.13;5081909;28;19916;-64
2022/06/08 01:45:29;;;;;;;;;;;;;;;-149.78;100.00;50244.59;5072254;28;19916;-64
2022/06/08 01:47:59;;;;;;;;;;;;;;;-149.78;100.00;50260.22;5071286;28;20337;-62
2022/06/08 01:50:31;;;;;;;;;;;;;;;-149.78;100.00;50248.50;5076472;28;20011;-63
2022/06/08 01:53:03;;;;;;;;;;;;;;;-149.78;100.00;50295.44;5071218;28;20311;-63
2022/06/08 01:55:28;;;;;;;;;;;;;;;-149.78;100.00;50244.59;5074266;28;19916;-63
2022/06/08 01:58:17;;;;;;;;;;;;;;;-149.78;100.00;50250.44;5088805;28;20406;-64
2022/06/08 02:00:44;;;;;;;;;;;;;;;-149.78;100.00;50256.31;5082938;28;19920;-63
2022/06/08 02:03:16;;;;;;;;;;;;;;;-149.78;100.00;50283.69;5084887;28;20259;-63
2022/06/08 02:05:41;;;;;;;;;;;;;;;-149.78;100.00;50268.03;5090917;28;20267;-64
2022/06/08 02:08:16;;;;;;;;;;;;;;;-149.78;100.00;50260.22;5075532;28;19927;-64
2022/06/08 02:11:02;;;;;;;;;;;;;;;-149.78;100.00;50268.03;5074251;28;19926;-64
2022/06/08 02:13:28;;;;;;;;;;;;;;;-149.78;100.00;50283.69;5075593;28;19921;-64
2022/06/08 02:15:57;;;;;;;;;;;;;;;-149.78;100.00;50256.31;5088649;28;19923;-64
2022/06/08 02:18:26;;;;;;;;;;;;;;;-149.78;100.00;50260.22;5079405;28;20302;-64
2022/06/08 02:21:06;;;;;;;;;;;;;;;-149.78;100.00;50273.91;5085990;28;19962;-64
2022/06/08 02:23:37;;;;;;;;;;;;;;;-149.78;100.00;50287.59;5067263;28;19966;-64
2022/06/08 02:26:06;;;;;;;;;;;;;;;-149.78;100.00;50260.22;5075232;28;19916;-64
2022/06/08 02:28:34;;;;;;;;;;;;;;;-149.78;100.00;50264.13;5073548;28;19917;-65
2022/06/08 02:31:09;;;;;;;;;;;;;;;-149.78;100.00;50283.69;5089710;28;19922;-64
2022/06/08 02:36:24;;;;;;;;;;;;;;;-149.78;100.00;50275.88;5089343;28;19916;-65
2022/06/08 02:39:12;;;;;;;;;;;;;;;-149.78;100.00;50264.13;5080541;28;19924;-64
2022/06/08 02:41:39;;;;;;;;;;;;;;;-149.78;100.00;50248.50;5078919;28;19916;-64
2022/06/08 02:44:07;;;;;;;;;;;;;;;-149.78;100.00;50264.13;5095435;28;19923;-64
2022/06/08 02:46:37;;;;;;;;;;;;;;;-149.78;100.00;50268.03;5087495;28;20355;-64
2022/06/08 02:49:07;;;;;;;;;;;;;;;-149.78;100.00;50311.06;5083501;28;19916;-64
2022/06/08 02:51:33;;;;;;;;;;;;;;;-149.78;100.00;50256.31;5085526;28;19945;-64
2022/06/08 02:54:02;;;;;;;;;;;;;;;-149.78;100.00;50268.03;5083123;28;19916;-64
2022/06/08 02:56:41;;;;;;;;;;;;;;;-149.78;100.00;50287.59;5079052;28;19996;-64
2022/06/08 02:59:06;;;;;;;;;;;;;;;-149.78;100.00;50260.22;5074181;28;20582;-64
2022/06/08 03:01:37;;;;;;;;;;;;;;;-149.78;100.00;50228.94;5088991;28;19920;-64
2022/06/08 03:04:05;;;;;;;;;;;;;;;-149.78;100.00;50256.31;5089446;28;19920;-64
2022/06/08 03:06:35;;;;;;;;;;;;;;;-149.78;100.00;50256.31;5075758;28;19920;-64
2022/06/08 03:09:02;;;;;;;;;;;;;;;-149.78;100.00;50268.03;5081294;28;20632;-64
2022/06/08 03:11:33;;;;;;;;;;;;;;;-149.78;100.00;50279.78;5079955;28;19917;-64
2022/06/08 03:14:03;;;;;;;;;;;;;;;-149.78;100.00;50275.88;5074026;28;19947;-64
2022/06/08 03:16:30;;;;;;;;;;;;;;;-149.78;100.00;50275.88;5076882;28;19963;-64
2022/06/08 03:18:56;;;;;;;;;;;;;;;-149.78;100.00;50299.34;5094414;28;19927;-64
2022/06/08 03:21:22;;;;;;;;;;;;;;;-149.78;100.00;50275.88;5082525;28;19916;-64
2022/06/08 03:23:49;;;;;;;;;;;;;;;-149.78;100.00;50275.88;5091134;28;19923;-64
2022/06/08 03:26:16;;;;;;;;;;;;;;;-149.78;100.00;50256.31;5087118;28;19920;-64
2022/06/08 03:28:41;;;;;;;;;;;;;;;-149.78;100.00;50260.22;5081701;28;19943;-64
2022/06/08 03:31:07;;;;;;;;;;;;;;;-149.78;100.00;50264.13;5082270;28;19993;-64
2022/06/08 03:33:33;;;;;;;;;;;;;;;-149.78;100.00;50264.13;5082018;28;19920;-64
2022/06/08 03:35:59;;;;;;;;;;;;;;;-149.78;100.00;50301.28;5073308;28;19920;-64
2022/06/08 03:38:24;;;;;;;;;;;;;;;-149.78;100.00;50271.97;5084111;28;19927;-64
2022/06/08 03:40:50;;;;;;;;;;;;;;;-149.78;100.00;50279.78;5073253;28;20259;-64
2022/06/08 03:43:16;;;;;;;;;;;;;;;-149.78;100.00;50295.44;5083492;28;20416;-64
2022/06/08 03:45:47;;;;;;;;;;;;;;;-149.78;100.00;50258.28;5086947;28;20022;-64
2022/06/08 03:48:13;;;;;;;;;;;;;;;-149.78;100.00;50287.59;5075493;28;20322;-64
2022/06/08 03:50:43;;;;;;;;;;;;;;;-149.78;100.00;50291.50;5083800;28;19923;-64
2022/06/08 03:53:18;;;;;;;;;;;;;;;-149.78;100.00;50248.50;5083886;28;19924;-64
2022/06/08 03:55:45;;;;;;;;;;;;;;;-149.78;100.00;50273.91;5085728;28;19922;-64
2022/06/08 03:58:11;;;;;;;;;;;;;;;-149.78;100.00;50271.97;5090282;28;19920;-64
2022/06/08 04:00:36;;;;;;;;;;;;;;;-149.78;100.00;50270.00;5082044;28;19943;-64
2022/06/08 04:03:03;;;;;;;;;;;;;;;-149.78;100.00;50275.88;5086915;28;20412;-64
2022/06/08 04:05:28;;;;;;;;;;;;;;;-149.78;100.00;50275.88;5092866;28;19971;-64
2022/06/08 04:07:54;;;;;;;;;;;;;;;-149.78;100.00;50283.69;5085653;28;20348;-64
2022/06/08 04:10:21;;;;;;;;;;;;;;;-149.78;100.00;50256.31;5091973;28;19964;-64
2022/06/08 04:12:47;;;;;;;;;;;;;;;-149.78;100.00;50236.75;5084758;28;19955;-64
2022/06/08 04:15:41;;;;;;;;;;;;;;;-149.78;100.00;50279.78;5074038;28;20436;-64
2022/06/08 04:17:58;;;;;;;;;;;;;;;-149.78;100.00;50264.13;5083211;28;20393;-64
2022/06/08 04:20:23;;;;;;;;;;;;;;;-149.78;100.00;50301.28;5073590;28;19921;-64
2022/06/08 04:22:49;;;;;;;;;;;;;;;-149.78;100.00;50275.88;5086441;28;19920;-64
2022/06/08 04:25:17;;;;;;;;;;;;;;;-149.78;100.00;50254.34;5082269;28;19927;-64
2022/06/08 04:27:42;;;;;;;;;;;;;;;-149.78;100.00;50244.59;5085609;28;19924;-64
2022/06/08 04:30:08;;;;;;;;;;;;;;;-149.78;100.00;50275.88;5083459;28;20357;-64
2022/06/08 04:32:34;;;;;;;;;;;;;;;-149.78;100.00;50264.13;5082821;28;20283;-64
2022/06/08 04:35:00;;;;;;;;;;;;;;;-149.78;100.00;50248.50;5087074;28;19917;-64
2022/06/08 04:37:27;;;;;;;;;;;;;;;-149.78;100.00;50264.13;5094321;28;19924;-64
2022/06/08 04:39:53;;;;;;;;;;;;;;;-149.78;100.00;50236.75;5092518;28;19922;-64
2022/06/08 04:42:18;;;;;;;;;;;;;;;-149.78;100.00;50240.66;5070990;28;20014;-64
2022/06/08 04:44:44;;;;;;;;;;;;;;;-149.78;100.00;50271.97;5071366;28;19920;-64
2022/06/08 04:47:10;;;;;;;;;;;;;;;-149.78;100.00;50271.97;5089381;28;20552;-64
2022/06/08 04:49:36;;;;;;;;;;;;;;;-149.78;100.00;50279.78;5082534;28;20379;-64
2022/06/08 04:52:02;;;;;;;;;;;;;;;-149.78;100.00;50303.25;5084908;28;19927;-64
2022/06/08 04:54:27;;;;;;;;;;;;;;;-149.78;100.00;50271.97;5072992;28;19921;-64
2022/06/08 04:56:54;;;;;;;;;;;;;;;-149.78;100.00;50303.25;5084899;28;20015;-64
2022/06/08 04:59:19;;;;;;;;;;;;;;;-149.78;100.00;50285.66;5084710;28;20016;-64
2022/06/08 05:01:44;;;;;;;;;;;;;;;-149.78;100.00;50271.97;5084692;28;19920;-64
2022/06/08 05:04:10;;;;;;;;;;;;;;;-149.78;100.00;50270.00;5070977;28;20311;-64
2022/06/08 05:06:36;;;;;;;;;;;;;;;-149.78;100.00;50252.41;5078845;28;19950;-64
2022/06/08 05:09:02;;;;;;;;;;;;;;;-149.78;100.00;50268.03;5076962;28;19970;-64
2022/06/08 05:11:28;;;;;;;;;;;;;;;-149.78;100.00;50266.09;5073108;28;19917;-64
2022/06/08 05:13:54;;;;;;;;;;;;;;;-149.78;100.00;50279.78;5069224;28;19920;-64
2022/06/08 05:16:19;;;;;;;;;;;;;;;-149.78;100.00;50254.34;5070033;28;20367;-64
2022/06/08 05:18:45;;;;;;;;;;;;;;;-149.78;100.00;50262.19;5092846;28;19949;-64
2022/06/08 05:21:10;;;;;;;;;;;;;;;-149.78;100.00;50252.41;5071286;28;20003;-64
2022/06/08 05:23:37;;;;;;;;;;;;;;;-149.78;100.00;50279.78;5082141;28;19916;-64
2022/06/08 05:26:02;;;;;;;;;;;;;;;-149.78;100.00;50264.13;5073219;28;19917;-64
2022/06/08 05:28:28;;;;;;;;;;;;;;;-149.78;100.00;50256.31;5084462;28;19923;-64
2022/06/08 05:30:56;;;;;;;;;;;;;;;-149.78;100.00;50287.59;5080335;28;19948;-64
2022/06/08 05:33:24;;;;;;;;;;;;;;;-149.78;100.00;50248.50;5086846;28;19920;-64
2022/06/08 05:35:49;;;;;;;;;;;;;;;-149.78;100.00;50270.00;5081991;28;19919;-64
2022/06/08 05:38:15;;;;;;;;;;;;;;;-149.78;100.00;50275.88;5088396;28;19923;-64
2022/06/08 05:40:40;;;;;;;;;;;;;;;-149.78;100.00;50256.31;5077755;28;19916;-64
2022/06/08 05:43:07;;;;;;;;;;;;;;;-149.78;100.00;50240.66;5085293;28;20027;-64
2022/06/08 05:45:33;;;;;;;;;;;;;;;-149.78;100.00;50262.19;5077562;28;19920;-64
2022/06/08 05:48:01;;;;;;;;;;;;;;;-149.78;100.00;50258.28;5082395;28;20341;-64
2022/06/08 05:50:28;;;;;;;;;;;;;;;-149.78;100.00;50271.97;5084177;28;19920;-64
2022/06/08 05:52:53;;;;;;;;;;;;;;;-149.78;100.00;50240.66;5078062;28;19917;-64
2022/06/08 05:55:20;;;;;;;;;;;;;;;-149.78;100.00;50252.41;5081159;28;19917;-64
2022/06/08 05:57:45;;;;;;;;;;;;;;;-149.78;100.00;50248.50;5085957;28;20011;-65
2022/06/08 06:00:15;;;;;;;;;;;;;;;-149.78;100.00;50248.50;5081259;28;20011;-64
2022/06/08 06:02:42;;;;;;;;;;;;;;;-149.78;100.00;50236.75;5082548;28;19927;-64
2022/06/08 06:05:08;;;;;;;;;;;;;;;-149.78;100.00;50223.06;5077332;28;20027;-64
2022/06/08 06:07:33;;;;;;;;;;;;;;;-149.78;100.00;50232.84;5076937;28;19933;-65
2022/06/08 06:10:03;;;;;;;;;;;;;;;-149.78;100.00;50221.13;5086474;28;19921;-65
2022/06/08 06:12:29;;;;;;;;;;;;;;;-149.78;100.00;50283.69;5058483;28;20287;-65
2022/06/08 06:14:54;;;;;;;;;;;;;;;-149.78;100.00;50248.50;5083347;28;19923;-65
2022/06/08 06:17:21;;;;;;;;;;;;;;;-149.78;100.00;50248.50;5077358;28;19917;-64
2022/06/08 06:19:47;;;;;;;;;;;;;;;-149.78;100.00;50248.50;5072777;28;19921;-65
2022/06/08 06:22:12;;;;;;;;;;;;;;;-149.78;100.00;50197.66;5069033;28;19924;-66
2022/06/08 06:24:38;;;;;;;;;;;;;;;-149.78;100.00;50207.44;5085021;28;20367;-64
2022/06/08 06:27:04;;;;;;;;;;;;;;;-149.78;100.00;50236.75;5083480;28;20275;-65
2022/06/08 06:29:29;;;;;;;;;;;;;;;-149.78;100.00;50164.41;5076086;28;20339;-65
2022/06/08 06:31:56;;;;;;;;;;;;;;;-149.78;100.00;50205.47;5072377;28;19924;-65
2022/06/08 06:34:24;;;;;;;;;;;;;;;-149.78;100.00;50221.13;5085251;28;19916;-65
2022/06/08 06:36:49;;;;;;;;;;;;;;;-149.78;100.00;50152.66;5075807;28;19916;-65
2022/06/08 06:39:15;;;;;;;;;;;;;;;-149.78;100.00;50135.06;5073657;28;19965;-63
2022/06/08 06:41:42;;;;;;;;;;;;;;;-149.78;100.00;50189.81;5075261;28;19931;-66
2022/06/08 06:44:08;;;;;;;;;;;;;;;-149.78;100.00;50150.72;5081757;28;19917;-65
2022/06/08 06:46:34;;;;;;;;;;;;;;;-149.78;100.00;50117.47;5073691;28;19921;-62
2022/06/08 06:48:59;;;;;;;;;;;;;;;-149.78;100.00;50138.97;5079909;28;20320;-63
2022/06/08 06:51:25;;;;;;;;;;;;;;;-149.78;100.00;50092.03;5082960;28;19916;-64
2022/06/08 06:53:51;;;;;;;;;;;;;;;-149.78;100.00;50080.31;5080620;28;19916;-63
2022/06/08 06:56:16;;;;;;;;;;;;;;;-149.78;100.00;50097.91;5086250;28;19916;-63
2022/06/08 06:58:42;;;;;;;;;;;;;;;-149.78;100.00;50047.06;5082215;28;19923;-63
2022/06/08 07:01:10;;;;;;;;;;;;;;;-149.78;100.00;50015.78;5092211;28;19916;-63
2022/06/08 07:03:35;;;;;;;;;;;;;;;-149.78;100.00;50027.50;5080593;28;19939;-64
2022/06/08 07:06:02;;;;;;;;;;;;;;;-149.78;100.00;50033.38;5087123;28;19916;-64
2022/06/08 07:08:27;;;;;;;;;;;;;;;-149.78;100.00;50029.47;5086885;28;19923;-63
2022/06/08 07:13:37;;;;;;;;;;;;;;;-149.78;100.00;50084.22;5089406;28;19946;-64
2022/06/08 07:16:04;;;;;;;;;;;;;;;-149.78;100.00;50115.50;5090428;28;20366;-63
2022/06/08 07:18:29;;;;;;;;;;;;;;;-149.78;100.00;50092.03;5084047;28;19984;-64
2022/06/08 07:20:55;;;;;;;;;;;;;;;-149.78;100.00;50103.78;5088062;28;19920;-63
2022/06/08 07:23:20;;;;;;;;;;;;;;;-149.78;100.00;50170.25;5093336;28;20015;-66
2022/06/08 07:25:46;;;;;;;;;;;;;;;-149.78;100.00;50158.53;5093418;28;19973;-66
2022/06/08 07:28:12;;;;;;;;;;;;;;;-149.78;100.00;50119.41;5082085;28;19939;-66
2022/06/08 07:30:37;;;;;;;;;;;;;;;-149.78;100.00;50119.41;5085454;28;19923;-63
2022/06/08 07:33:03;;;;;;;;;;;;;;;-149.78;100.00;50158.53;5079072;28;20011;-63
2022/06/08 07:35:29;;;;;;;;;;;;;;;-149.78;100.00;50154.63;5084516;28;19927;-65
2022/06/08 07:37:55;;;;;;;;;;;;;;;-149.78;100.00;50183.97;5085691;28;20010;-65
2022/06/08 07:40:21;;;;;;;;;;;;;;;-149.78;100.00;50189.81;5093024;28;20025;-65
2022/06/08 07:42:46;;;;;;;;;;;;;;;-149.78;100.00;50187.88;5084392;28;19958;-65
2022/06/08 07:45:12;;;;;;;;;;;;;;;-149.78;100.00;50174.19;5071052;28;19928;-65
2022/06/08 07:49:36;;;;;;;;;;;;;;;-149.78;100.00;50189.81;5094700;28;19981;-65
2022/06/08 07:50:25;;;;;;;;;;;;;;;-149.78;100.00;50209.38;5079698;28;19920;-65
2022/06/08 07:52:50;;;;;;;;;;;;;;;-149.78;100.00;50178.09;5087051;28;20014;-65
2022/06/08 07:55:16;;;;;;;;;;;;;;;-149.78;100.00;50189.81;5070265;28;20066;-65
2022/06/08 07:57:42;;;;;;;;;;;;;;;-149.78;100.00;50182.00;5091557;28;19928;-65
2022/06/08 08:00:10;;;;;;;;;;;;;;;-149.78;100.00;50201.56;5083662;28;19916;-65
2022/06/08 08:02:37;;;;;;;;;;;;;;;-149.78;100.00;50166.34;5077795;28;19928;-66
2022/06/08 08:05:02;;;;;;;;;;;;;;;-149.78;100.00;50150.72;5091983;28;19920;-65
2022/06/08 08:07:28;;;;;;;;;;;;;;;-149.78;100.00;50119.41;5091271;28;19924;-65
2022/06/08 08:09:54;;;;;;;;;;;;;;;-149.78;100.00;50097.91;5093456;28;19959;-65
2022/06/08 08:12:20;;;;;;;;;;;;;;;-149.78;100.00;50088.13;5076672;28;20002;-66
2022/06/08 08:14:46;;;;;;;;;;;;;;;-149.78;100.00;50039.25;5078074;28;19962;-65
2022/06/08 08:17:11;;;;;;;;;;;;;;;-149.78;100.00;50021.63;5093025;28;19924;-64
2022/06/08 08:19:39;;;;;;;;;;;;;;;-149.78;100.00;49964.94;5087907;28;19943;-66
2022/06/08 08:22:05;;;;;;;;;;;;;;;-149.78;96.36;49972.75;5080565;28;19916;-64
2022/06/08 08:24:32;;;;;;;;;;;;;;;-149.78;74.20;49923.88;5076142;28;19969;-64
2022/06/08 08:26:58;;;;;;;;;;;;;;;-149.78;59.73;49876.94;5076831;28;19931;-64
2022/06/08 08:29:24;;;;;;;;;;;;;;;-149.78;53.48;49878.88;5084219;28;20002;-64
2022/06/08 08:31:49;;;;;;;;;;;;;;;-149.78;57.68;49921.91;5086269;28;19923;-64
2022/06/08 08:34:15;;;;;;;;;;;;;;;-149.78;67.39;49896.50;5086404;28;19920;-64
2022/06/08 08:36:41;;;;;;;;;;;;;;;-149.78;66.64;49876.94;5074721;28;19924;-64
2022/06/08 08:39:07;;;;;;;;;;;;;;;-149.78;54.46;49857.38;5082582;28;19921;-64
2022/06/08 08:44:37;;;;;;;;;;;;;;;-149.78;45.73;49828.03;5084110;28;19920;-64
2022/06/08 08:47:09;;;;;;;;;;;;;;;-149.78;41.05;49792.84;5075516;28;19920;-64
2022/06/08 08:49:39;;;;;;;;;;;;;;;-149.78;40.94;49849.56;5091877;28;19923;-64
2022/06/08 08:52:13;;;;;;;;;;;;;;;-149.78;48.97;49900.41;5086630;28;19920;-64
2022/06/08 08:54:46;;;;;;;;;;;;;;;-149.78;60.42;49939.50;5072219;28;19923;-64
2022/06/08 08:57:12;;;;;;;;;;;;;;;-149.78;71.85;50029.47;5072701;28;19924;-64
2022/06/08 08:59:41;;;;;;;;;;;;;;;-149.78;71.63;50017.72;5083437;28;19939;-65
2022/06/08 09:02:14;;;;;;;;;;;;;;;-149.78;82.76;50049.03;5088863;28;19926;-66
2022/06/08 09:04:47;;;;;;;;;;;;;;;-149.78;68.75;50009.91;5080854;28;19916;-66
2022/06/08 09:07:14;;;;;;;;;;;;;;;-149.78;67.94;49966.88;5076401;28;19921;-65
2022/06/08 09:09:40;;;;;;;;;;;;;;;-149.78;60.43;49990.34;5080270;28;20018;-64
2022/06/08 09:12:11;;;;;;;;;;;;;;;-149.78;75.74;50002.09;5078259;28;20467;-64
2022/06/08 09:14:48;;;;;;;;;;;;;;;-149.78;74.51;50009.91;5085979;28;19916;-64
2022/06/08 09:17:16;;;;;;;;;;;;;;;-149.78;57.52;49951.25;5092092;28;20392;-64
2022/06/08 09:19:43;;;;;;;;;;;;;;;-149.78;59.44;49949.28;5087933;28;19923;-64
2022/06/08 09:22:09;;;;;;;;;;;;;;;-149.78;56.21;49992.31;5083993;28;19924;-64
2022/06/08 09:24:41;;;;;;;;;;;;;;;-149.78;79.82;50025.56;5074500;28;20398;-64
2022/06/08 09:27:13;;;;;;;;;;;;;;;-149.78;69.21;50049.03;5085401;28;19924;-64
2022/06/08 09:30:04;;;;;;;;;;;;;;;-149.78;84.19;50084.22;5085005;28;19919;-64
2022/06/08 09:32:35;;;;;;;;;;;;;;;-149.78;93.79;50092.03;5063384;28;19922;-65
2022/06/08 09:35:05;;;;;;;;;;;;;;;-149.78;100.00;50125.28;5090569;28;19923;-66
2022/06/08 09:37:30;;;;;;;;;;;;;;;-149.78;100.00;50064.66;5079637;28;20015;-65
2022/06/08 09:40:01;;;;;;;;;;;;;;;-149.78;92.28;50006.00;5092361;28;20342;-65
2022/06/08 09:42:32;;;;;;;;;;;;;;;-149.78;65.87;50013.81;5090178;28;19916;-66
2022/06/08 09:45:03;;;;;;;;;;;;;;;-149.78;68.51;49976.66;5077106;28;19960;-66
2022/06/08 09:53:33;;;;;;;;;;;;;;;-149.78;72.44;50064.66;5070426;28;19920;-64
2022/06/08 09:56:11;;;;;;;;;;;;;;;-149.78;77.20;50004.03;5083574;28;19916;-64
2022/06/08 09:58:43;;;;;;;;;;;;;;;-149.78;69.78;49982.53;5071485;28;20279;-64
2022/06/08 10:01:31;;;;;;;;;;;;;;;-149.78;68.43;49994.25;5074894;28;20340;-64
2022/06/08 10:03:57;;;;;;;;;;;;;;;-149.78;69.81;50009.91;5083165;28;19923;-66
2022/06/08 10:06:37;;;;;;;;;;;;;;;-149.78;67.65;50017.72;5077295;28;19916;-65
2022/06/08 10:09:08;;;;;;;;;;;;;;;-149.78;73.45;50043.16;5078289;28;19920;-65
2022/06/08 10:11:34;;;;;;;;;;;;;;;-149.78;100.00;50088.13;5091571;28;19925;-65
2022/06/08 10:14:21;;;;;;;;;;;;;;;-149.78;89.41;50056.84;5089105;28;19916;-64
2022/06/08 10:17:07;;;;;;;;;;;;;;;-149.78;88.30;50037.28;5072811;28;19917;-64
2022/06/08 10:19:45;;;;;;;;;;;;;;;-149.78;91.41;50029.47;5065325;28;19920;-64
2022/06/08 10:22:12;;;;;;;;;;;;;;;-149.78;97.22;50045.09;5080469;28;19916;-64
2022/06/08 10:24:50;;;;;;;;;;;;;;;-149.78;87.42;50056.84;5077178;28;20287;-64
2022/06/08 10:27:25;;;;;;;;;;;;;;;-149.78;84.83;50037.28;5083411;28;19921;-66
2022/06/08 10:29:53;;;;;;;;;;;;;;;-149.78;100.00;50056.84;5093033;28;19923;-65
2022/06/08 10:32:29;;;;;;;;;;;;;;;-149.78;83.74;50021.63;5077219;28;20406;-65
2022/06/08 10:34:55;;;;;;;;;;;;;;;-149.78;73.47;50019.69;5075061;28;19923;-66
2022/06/08 10:37:24;;;;;;;;;;;;;;;-149.78;73.41;50060.75;5073665;28;19920;-65
2022/06/08 10:39:51;;;;;;;;;;;;;;;-149.78;71.20;50041.19;5079179;28;19954;-65
2022/06/08 10:45:19;;;;;;;;;;;;;;;-149.78;83.07;50072.50;5088924;28;19920;-65
2022/06/08 10:47:52;;;;;;;;;;;;;;;-149.78;89.91;50072.50;5075493;28;19931;-65
2022/06/08 10:50:26;;;;;;;;;;;;;;;-149.78;100.00;50052.94;5075996;28;19916;-66
2022/06/08 10:52:52;;;;;;;;;;;;;;;-149.78;100.00;50074.44;5081282;28;20333;-66
2022/06/08 10:55:18;;;;;;;;;;;;;;;-149.78;100.00;50090.09;5084119;28;19974;-66
2022/06/08 10:57:49;;;;;;;;;;;;;;;-149.78;100.00;50097.91;5080794;28;19917;-65
2022/06/08 11:00:18;;;;;;;;;;;;;;;-149.78;100.00;50111.59;5078813;28;19921;-65
2022/06/08 11:02:47;;;;;;;;;;;;;;;-149.78;100.00;50099.88;5057983;28;19917;-65
2022/06/08 11:05:18;;;;;;;;;;;;;;;-149.78;100.00;50111.59;5086795;28;20406;-65
2022/06/08 11:07:58;;;;;;;;;;;;;;;-149.78;100.00;50064.66;5089876;28;19920;-65
2022/06/08 11:10:43;;;;;;;;;;;;;;;-149.78;100.00;50090.09;5076188;28;19916;-65
2022/06/08 11:13:24;;;;;;;;;;;;;;;-149.78;100.00;50088.13;5087597;28;19921;-65
2022/06/08 11:15:56;;;;;;;;;;;;;;;-149.78;100.00;50103.78;5088862;28;19952;-65
2022/06/08 11:18:24;;;;;;;;;;;;;;;-149.78;100.00;50095.94;5076138;28;20311;-65
2022/06/08 11:20:56;;;;;;;;;;;;;;;-149.78;100.00;50076.41;5082110;28;20381;-66
2022/06/08 11:23:35;;;;;;;;;;;;;;;-149.78;100.00;50092.03;5073723;28;19917;-66
2022/06/08 11:26:04;;;;;;;;;;;;;;;-149.78;100.00;50107.69;5084507;28;20015;-66
2022/06/08 11:28:33;;;;;;;;;;;;;;;-149.78;100.00;50107.69;5087688;28;20007;-64
2022/06/08 11:31:00;;;;;;;;;;;;;;;-149.78;100.00;50115.50;5088257;28;20370;-64
2022/06/08 11:33:47;;;;;;;;;;;;;;;-149.78;100.00;50103.78;5079013;28;19955;-64
2022/06/08 11:36:16;;;;;;;;;;;;;;;-149.78;100.00;50123.34;5073981;28;20618;-64
2022/06/08 11:39:03;;;;;;;;;;;;;;;-149.78;100.00;50113.56;5075371;28;19917;-65
2022/06/08 11:41:32;;;;;;;;;;;;;;;-149.78;100.00;50144.84;5083478;28;19958;-66
2022/06/08 11:44:00;;;;;;;;;;;;;;;-149.78;100.00;50119.41;5088873;28;19923;-65
2022/06/08 11:46:38;;;;;;;;;;;;;;;-149.78;100.00;50107.69;5075040;28;19927;-65
2022/06/08 11:49:05;;;;;;;;;;;;;;;-149.78;100.00;50105.72;5087027;28;19973;-65
2022/06/08 11:51:36;;;;;;;;;;;;;;;-149.78;100.00;50078.34;5085579;28;19943;-66
2022/06/08 11:54:17;;;;;;;;;;;;;;;-149.78;100.00;50080.31;5076099;28;19970;-65
2022/06/08 11:56:58;;;;;;;;;;;;;;;-149.78;96.02;50111.59;5090562;28;20397;-66
2022/06/08 11:59:24;;;;;;;;;;;;;;;-149.78;99.29;50103.78;5075390;28;19917;-65
2022/06/08 12:01:52;;;;;;;;;;;;;;;-149.78;100.00;50109.66;5085835;28;19923;-65
2022/06/08 12:04:24;;;;;;;;;;;;;;;-149.78;100.00;50095.94;5071923;28;19939;-65
2022/06/08 12:06:51;;;;;;;;;;;;;;;-149.78;100.00;50072.50;5085363;28;19916;-65
2022/06/08 12:09:20;;;;;;;;;;;;;;;-149.78;100.00;50105.72;5091921;28;20037;-66
2022/06/08 12:11:48;;;;;;;;;;;;;;;-149.78;100.00;50084.22;5082723;28;19917;-65
2022/06/08 12:14:29;;;;;;;;;;;;;;;-149.78;100.00;50088.13;5085763;28;19944;-66
2022/06/08 12:16:57;;;;;;;;;;;;;;;-149.78;100.00;50107.69;5072321;28;19916;-66
2022/06/08 12:19:24;;;;;;;;;;;;;;;-149.78;100.00;50095.94;5075380;28;19924;-66
2022/06/08 12:22:05;;;;;;;;;;;;;;;-149.78;100.00;50099.88;5083022;28;19923;-66
2022/06/08 12:24:31;;;;;;;;;;;;;;;-149.78;100.00;50135.06;5087220;28;19923;-65
2022/06/08 12:27:02;;;;;;;;;;;;;;;-149.78;100.00;50092.03;5088227;28;19920;-66
2022/06/08 12:29:40;;;;;;;;;;;;;;;-149.78;100.00;50080.31;5083032;28;19931;-65
2022/06/08 12:32:05;;;;;;;;;;;;;;;-149.78;100.00;50088.13;5084493;28;19920;-65
2022/06/08 12:34:41;;;;;;;;;;;;;;;-149.78;100.00;50115.50;5084653;28;19969;-65
2022/06/08 12:37:22;;;;;;;;;;;;;;;-149.78;100.00;50092.03;5086258;28;19927;-66
2022/06/08 12:39:47;;;;;;;;;;;;;;;-149.78;100.00;50052.94;5084750;28;19923;-65
2022/06/08 12:42:30;;;;;;;;;;;;;;;-149.78;100.00;50142.88;5073119;28;19916;-66
2022/06/08 12:44:56;;;;;;;;;;;;;;;-149.78;100.00;50131.16;5075694;28;19924;-65